This is the latest recevied weather packets stored in our database for station/object DL2RXE-13. If no packets are shown the sender has not sent any weather packets the latest 10 day(s).
| Time | Temp. | Humidity | Pressure | Rain* | Wind** | Luminosity | Snow |
|---|---|---|---|---|---|---|---|
| 1777645228 | 22.22° C | 37% | 1027 hPa | 0 mm | - | 465 W/m² | - |
| 1777632028 | 19.44° C | 48% | 1029 hPa | 0 mm | - | 538 W/m² | - |
| 1777631428 | 20° C | 49% | 1029.1 hPa | 0 mm | - | 538 W/m² | - |
| 1777628428 | 18.33° C | 51% | 1029.5 hPa | 0 mm | - | 585 W/m² | - |
| 1777621229 | 16.67° C | 55% | 1029.8 hPa | 0 mm | - | 346 W/m² | - |
| 1777620629 | 16.11° C | 58% | 1029.9 hPa | 0 mm | - | 336 W/m² | - |
| 1777618249 | 16.11° C | 59% | 1029.8 hPa | 0 mm | - | 245 W/m² | - |
| 1777614032 | 10.56° C | 75% | 1029.8 hPa | 0 mm | - | 111 W/m² | - |
| 1777612829 | 9.44° C | 75% | 1029.6 hPa | 0 mm | - | 58 W/m² | - |
| 1777612231 | 7.78° C | 79% | 1029.6 hPa | 0 mm | - | 50 W/m² | - |
| 1777611030 | 4.44° C | 89% | 1029.7 hPa | 0 mm | - | 34 W/m² | - |
| 1777608667 | 2.22° C | 93% | 1029.5 hPa | 0 mm | - | 11 W/m² | - |
| 1777605646 | 1.67° C | 94% | 1029.5 hPa | 0 mm | - | 0 W/m² | - |
| 1777604442 | 2.22° C | 93% | 1029.6 hPa | 0 mm | - | 0 W/m² | - |
| 1777600282 | 3.33° C | 90% | 1029.4 hPa | 0 mm | - | 0 W/m² | - |
| 1777599642 | 3.33° C | 88% | 1029.3 hPa | 0 mm | - | 0 W/m² | - |
| 1777594263 | 5° C | 84% | 1029.2 hPa | 0 mm | - | 0 W/m² | - |
| 1777593042 | 4.44° C | 89% | 1029.2 hPa | 0 mm | - | 0 W/m² | - |
| 1777588271 | 6.11° C | 83% | 1029.4 hPa | 0 mm | - | 0 W/m² | - |
| 1777582246 | 7.22° C | 78% | 1029.4 hPa | 0 mm | - | 0 W/m² | - |
| 1777576828 | 10° C | 68% | 1029.3 hPa | 0 mm | - | 0 W/m² | - |
| 1777576248 | 11.67° C | 64% | 1029.2 hPa | 0 mm | - | 0 W/m² | - |
| 1777572030 | 16.11° C | 47% | 1029 hPa | 0 mm | - | 14 W/m² | - |
| 1777570828 | 17.22° C | 43% | 1029.2 hPa | 0 mm | - | 30 W/m² | - |
| 1777569669 | 17.78° C | 42% | 1029.2 hPa | 0 mm | - | 49 W/m² | - |
* Rain latest hour (hover to see other rain measurements)
** Current wind speed in m/s (hover to see current wind gust speed)